Time;durP1;ratioP1;P1;durP2;ratioP2;P2;SDS_P1;SDS_P2;PMS_P1;PMS_P2;Temp;Humidity;BMP_temperature;BMP_pressure;BME280_temperature;BME280_humidity;BME280_pressure;Samples;Min_cycle;Max_cycle;Signal;HPM_P1;HPM_P2
2022/05/31 00:01:30;;;;;;;135.43;79.67;;;;;;;26.61;58.67;100194.86;1752944;81;20950;-56
2022/05/31 00:03:57;;;;;;;136.17;81.33;;;;;;;25.94;63.67;100209.64;1752972;81;21587;-56
2022/05/31 00:06:25;;;;;;;135.13;78.47;;;;;;;25.89;66.54;100204.92;1752295;81;21014;-62
2022/05/31 00:08:53;;;;;;;144.67;80.73;;;;;;;26.48;61.72;100198.28;1752483;81;21331;-56
2022/05/31 00:11:20;;;;;;;135.83;79.83;;;;;;;25.80;66.68;100203.44;1754552;80;21082;-55
2022/05/31 00:13:49;;;;;;;138.27;78.27;;;;;;;26.20;65.01;100196.75;1760880;80;21537;-55
2022/05/31 00:16:16;;;;;;;144.93;76.67;;;;;;;26.05;64.93;100199.63;1757520;80;20983;-56
2022/05/31 00:18:45;;;;;;;129.13;74.60;;;;;;;25.75;66.96;100202.11;1752092;80;21061;-59
2022/05/31 00:21:12;;;;;;;138.33;76.70;;;;;;;25.60;69.58;100199.62;1752301;81;21584;-56
2022/05/31 00:23:40;;;;;;;134.70;74.00;;;;;;;25.39;71.04;100203.85;1752515;81;21050;-56
2022/05/31 00:26:09;;;;;;;129.13;74.60;;;;;;;25.45;72.43;100209.38;1754291;80;20979;-57
2022/05/31 00:28:36;;;;;;;136.47;75.03;;;;;;;25.54;73.49;100206.11;1754975;80;21043;-62
2022/05/31 00:31:04;;;;;;;131.73;72.97;;;;;;;25.84;70.80;100209.80;1746876;81;21125;-56
2022/05/31 00:33:31;;;;;;;128.70;72.43;;;;;;;25.88;68.03;100212.14;1755780;81;21978;-56
2022/05/31 00:35:59;;;;;;;131.50;72.60;;;;;;;25.61;69.98;100216.70;1755927;79;21066;-56
2022/05/31 00:38:27;;;;;;;128.60;70.60;;;;;;;25.73;68.84;100214.42;1744496;81;20962;-58
2022/05/31 00:41:22;;;;;;;122.10;71.10;;;;;;;25.70;71.98;100214.20;1753233;80;21576;-57
2022/05/31 00:43:25;;;;;;;120.83;64.50;;;;;;;25.47;72.62;100212.57;1756963;81;21366;-56
2022/05/31 00:45:58;;;;;;;119.37;66.30;;;;;;;25.66;73.42;100207.84;1721420;82;21209;-56
2022/05/31 00:48:38;;;;;;;118.50;65.83;;;;;;;26.15;67.34;100211.53;1760899;80;20967;-62
2022/05/31 00:51:10;;;;;;;110.85;62.83;;;;;;;25.86;68.69;100203.61;1761333;80;21060;-56
2022/05/31 00:53:44;;;;;;;113.90;64.90;;;;;;;25.75;70.18;100206.12;1759876;81;21470;-56
2022/05/31 00:56:21;;;;;;;110.80;65.57;;;;;;;25.70;71.01;100204.30;1765328;80;21048;-62
2022/05/31 00:59:02;;;;;;;115.20;64.67;;;;;;;25.92;69.06;100209.16;1763453;80;21169;-55
2022/05/31 01:01:33;;;;;;;99.07;59.10;;;;;;;25.76;70.94;100211.73;1724793;81;21128;-55
2022/05/31 01:04:01;;;;;;;97.10;56.93;;;;;;;25.73;70.89;100214.42;1760040;81;21015;-56
2022/05/31 01:06:28;;;;;;;107.70;60.80;;;;;;;26.23;66.83;100216.77;1759584;81;21702;-57
2022/05/31 01:08:57;;;;;;;108.03;60.20;;;;;;;25.99;68.15;100214.67;1760191;81;21008;-56
2022/05/31 01:11:32;;;;;;;98.97;58.53;;;;;;;25.63;69.82;100213.73;1759453;81;21278;-60
2022/05/31 01:14:18;;;;;;;105.93;60.43;;;;;;;25.88;68.91;100221.48;1760629;81;21005;-55
2022/05/31 01:17:02;;;;;;;106.17;59.90;;;;;;;26.40;64.53;100215.73;1708842;81;21043;-56
2022/05/31 01:20:00;;;;;;;111.62;59.80;;;;;;;25.69;69.29;100220.08;1753912;80;21341;-56
2022/05/31 01:22:40;;;;;;;102.43;60.30;;;;;;;25.71;69.09;100219.78;1693870;82;21199;-61
2022/05/31 01:25:37;;;;;;;107.63;60.90;;;;;;;25.57;73.62;100226.36;1735021;82;22131;-56
2022/05/31 01:28:33;;;;;;;107.40;60.17;;;;;;;25.32;77.89;100219.39;1718105;83;21024;-58
2022/05/31 01:31:15;;;;;;;96.20;56.20;;;;;;;25.30;74.25;100220.20;1760883;81;21456;-55
2022/05/31 01:34:13;;;;;;;110.00;62.15;;;;;;;25.02;79.85;100215.65;1742367;81;21536;-58
2022/05/31 01:36:51;;;;;;;100.00;59.50;;;;;;;25.27;80.27;100214.12;1760762;79;21566;-55
2022/05/31 01:39:35;;;;;;;109.80;59.77;;;;;;;25.31;78.35;100211.14;1760443;81;21831;-57
2022/05/31 01:42:08;;;;;;;113.87;61.37;;;;;;;25.49;76.14;100213.61;1761447;79;21006;-57
2022/05/31 01:44:37;;;;;;;114.50;62.23;;;;;;;25.31;77.16;100218.36;1761176;79;21573;-59
2022/05/31 01:47:07;;;;;;;101.42;58.33;;;;;;;25.68;75.22;100224.34;1760948;81;28406;-56
2022/05/31 01:49:41;;;;;;;122.67;65.03;;;;;;;25.28;78.58;100218.91;1761160;79;21724;-55
2022/05/31 01:52:09;;;;;;;110.57;61.87;;;;;;;25.14;81.99;100220.09;1761290;81;21234;-56
2022/05/31 01:54:37;;;;;;;106.83;58.70;;;;;;;25.46;78.51;100223.00;1760610;79;21500;-63
2022/05/31 01:57:04;;;;;;;119.67;68.07;;;;;;;25.28;83.14;100225.59;1729456;81;22235;-57
2022/05/31 01:59:35;;;;;;;111.47;65.53;;;;;;;25.10;83.53;100220.41;1761046;81;21562;-59
2022/05/31 02:02:04;;;;;;;117.62;65.00;;;;;;;25.65;77.17;100220.39;1761497;81;21052;-56
2022/05/31 02:04:31;;;;;;;115.10;64.63;;;;;;;25.11;81.11;100225.98;1753685;81;21182;-58
2022/05/31 02:07:11;;;;;;;128.83;70.73;;;;;;;25.14;82.76;100225.43;1761410;79;21407;-56
2022/05/31 02:09:44;;;;;;;121.63;72.03;;;;;;;25.45;80.86;100229.39;1761502;79;20993;-57
2022/05/31 02:12:15;;;;;;;133.47;73.90;;;;;;;25.91;74.27;100228.94;1760620;81;20907;-64
2022/05/31 02:14:44;;;;;;;122.87;71.10;;;;;;;25.87;74.45;100235.11;1759154;79;22091;-58
2022/05/31 02:17:13;;;;;;;144.53;75.23;;;;;;;26.02;72.81;100228.25;1761253;79;21159;-58
2022/05/31 02:19:59;;;;;;;137.47;78.40;;;;;;;25.92;73.82;100234.53;1761457;81;21037;-61
2022/05/31 02:22:34;;;;;;;132.10;79.17;;;;;;;25.87;74.07;100233.77;1750768;81;21505;-56
2022/05/31 02:25:01;;;;;;;142.73;81.17;;;;;;;25.91;73.75;100235.61;1761330;79;21495;-57
2022/05/31 02:27:29;;;;;;;143.63;81.23;;;;;;;25.83;75.36;100234.88;1749599;81;20994;-56
2022/05/31 02:29:57;;;;;;;145.07;83.03;;;;;;;25.44;80.79;100237.15;1761380;81;21894;-63
2022/05/31 02:32:24;;;;;;;138.23;79.77;;;;;;;25.43;82.07;100239.56;1760263;81;21102;-59
2022/05/31 02:34:51;;;;;;;133.80;78.77;;;;;;;25.91;79.56;100240.13;1761390;81;21080;-56
2022/05/31 02:37:20;;;;;;;143.27;83.20;;;;;;;26.00;77.71;100238.44;1761391;81;20915;-58
2022/05/31 02:39:49;;;;;;;136.43;80.10;;;;;;;26.72;70.33;100236.94;1762006;81;21108;-56
2022/05/31 02:42:17;;;;;;;141.67;80.17;;;;;;;26.79;66.82;100242.72;1728568;81;21836;-59
2022/05/31 02:44:46;;;;;;;137.80;81.03;;;;;;;27.00;64.78;100239.16;1761636;81;21789;-56
2022/05/31 02:47:14;;;;;;;127.47;75.77;;;;;;;26.52;67.42;100239.91;1761927;81;21085;-56
2022/05/31 02:49:41;;;;;;;134.27;79.00;;;;;;;26.89;65.20;100240.41;1761910;79;21082;-57
2022/05/31 02:52:09;;;;;;;134.00;82.00;;;;;;;27.31;61.60;100244.80;1728459;81;20993;-59
2022/05/31 02:54:36;;;;;;;130.07;79.47;;;;;;;27.96;57.66;100237.72;1761345;79;21886;-56
2022/05/31 02:57:22;;;;;;;139.13;79.90;;;;;;;28.26;55.05;100241.64;1761908;81;21112;-56
2022/05/31 03:00:09;;;;;;;134.23;79.73;;;;;;;28.41;53.62;100241.88;1761247;81;21927;-55
2022/05/31 03:02:46;;;;;;;143.90;83.37;;;;;;;28.31;53.42;100246.36;1693343;84;21171;-57
2022/05/31 03:05:33;;;;;;;143.10;81.23;;;;;;;28.34;53.01;100240.40;1741711;81;21105;-56
2022/05/31 03:08:08;;;;;;;128.43;77.77;;;;;;;27.85;54.94;100238.49;1756668;81;21177;-56
2022/05/31 03:10:40;;;;;;;131.07;80.33;;;;;;;28.36;53.42;100243.55;1720186;82;21006;-57
2022/05/31 03:13:07;;;;;;;125.90;74.83;;;;;;;28.78;51.99;100237.52;1755152;81;21045;-57
2022/05/31 03:15:35;;;;;;;115.90;73.17;;;;;;;28.70;51.61;100246.30;1704602;81;21106;-57
2022/05/31 03:18:10;;;;;;;115.37;76.03;;;;;;;29.06;50.05;100239.56;1754315;81;21073;-57
2022/05/31 03:20:45;;;;;;;111.83;70.97;;;;;;;29.11;49.48;100241.32;1721907;82;21764;-57
2022/05/31 03:23:25;;;;;;;115.77;75.57;;;;;;;29.61;48.08;100238.42;1750803;81;20951;-59
2022/05/31 03:25:52;;;;;;;114.45;72.05;;;;;;;29.76;47.69;100239.33;1752917;80;21043;-56
2022/05/31 03:28:20;;;;;;;117.77;74.13;;;;;;;30.01;46.45;100240.51;1754807;79;21069;-56
2022/05/31 03:30:48;;;;;;;119.77;69.07;;;;;;;30.12;45.95;100243.70;1755231;81;21069;-58
2022/05/31 03:33:16;;;;;;;113.37;70.30;;;;;;;30.23;45.40;100250.38;1720040;83;21258;-56
2022/05/31 03:35:43;;;;;;;114.60;70.53;;;;;;;29.92;46.05;100247.75;1748101;81;21562;-57
2022/05/31 03:38:15;;;;;;;108.73;67.43;;;;;;;30.64;45.10;100253.70;1751783;80;20955;-56
2022/05/31 03:40:57;;;;;;;94.83;59.17;;;;;;;31.32;43.49;100251.25;1755400;79;21540;-58
2022/05/31 03:43:33;;;;;;;105.70;65.42;;;;;;;31.54;42.02;100249.66;1755929;81;21569;-56
2022/05/31 03:46:12;;;;;;;105.87;65.47;;;;;;;31.10;42.47;100252.23;1717220;82;21250;-58
2022/05/31 03:48:41;;;;;;;101.02;66.62;;;;;;;31.28;42.61;100247.59;1755364;81;21458;-58
2022/05/31 03:51:11;;;;;;;102.80;61.20;;;;;;;31.63;42.04;100250.95;1719544;82;21488;-56
2022/05/31 03:53:38;;;;;;;99.03;65.55;;;;;;;32.07;40.95;100246.94;1752833;81;21437;-56
2022/05/31 03:56:09;;;;;;;101.30;63.63;;;;;;;32.38;39.68;100245.75;1754320;79;21524;-63
2022/05/31 03:58:37;;;;;;;92.53;60.70;;;;;;;32.24;39.82;100244.69;1723705;82;21239;-55
2022/05/31 04:01:19;;;;;;;94.40;60.38;;;;;;;31.90;40.24;100247.84;1756572;81;21241;-55
2022/05/31 04:03:47;;;;;;;87.37;57.78;;;;;;;31.81;40.18;100241.67;1721626;83;21015;-56
2022/05/31 04:06:16;;;;;;;89.80;56.57;;;;;;;31.61;40.37;100243.77;1751954;80;21023;-61
2022/05/31 04:08:43;;;;;;;97.07;61.37;;;;;;;31.46;40.70;100247.80;1752694;80;21045;-56
2022/05/31 04:11:11;;;;;;;92.47;58.87;;;;;;;30.99;41.51;100253.15;1756883;81;21247;-56
2022/05/31 04:13:38;;;;;;;98.47;62.30;;;;;;;30.84;41.99;100250.41;1743474;81;20971;-55
2022/05/31 04:16:21;;;;;;;97.10;61.10;;;;;;;30.10;43.70;100245.11;1752523;80;21030;-57
2022/05/31 04:18:58;;;;;;;97.80;61.23;;;;;;;29.93;44.47;100249.88;1755081;80;21011;-56
2022/05/31 04:21:27;;;;;;;86.13;55.77;;;;;;;29.48;45.83;100251.38;1756686;81;21073;-56
2022/05/31 04:24:02;;;;;;;91.57;57.30;;;;;;;29.50;46.42;100249.16;1731063;81;21534;-62
2022/05/31 04:26:35;;;;;;;93.17;55.93;;;;;;;29.76;47.01;100247.39;1723282;81;21059;-56
2022/05/31 04:29:20;;;;;;;89.30;55.30;;;;;;;29.70;47.91;100241.94;1765619;80;22256;-62
2022/05/31 04:32:04;;;;;;;85.90;54.13;;;;;;;30.14;46.58;100244.72;1760780;81;21042;-56
2022/05/31 04:34:37;;;;;;;84.57;51.70;;;;;;;30.43;45.32;100248.17;1752245;81;21466;-54
2022/05/31 04:37:05;;;;;;;73.23;47.30;;;;;;;30.42;45.40;100250.08;1760106;81;22378;-61
2022/05/31 04:39:41;;;;;;;70.03;47.20;;;;;;;30.75;44.57;100242.31;1745937;80;21464;-56
2022/05/31 04:42:10;;;;;;;70.43;43.90;;;;;;;31.18;43.49;100233.37;1760165;81;21056;-56
2022/05/31 04:44:37;;;;;;;70.00;44.07;;;;;;;32.38;42.04;100230.36;1760101;81;21058;-57
2022/05/31 04:47:08;;;;;;;63.10;40.90;;;;;;;33.02;41.05;100235.92;1762558;80;20952;-64
2022/05/31 04:49:40;;;;;;;58.38;40.08;;;;;;;33.51;39.24;100228.47;1762457;80;21357;-56
2022/05/31 04:52:08;;;;;;;52.60;33.88;;;;;;;33.78;38.46;100231.03;1762672;80;21024;-56
2022/05/31 04:54:38;;;;;;;50.30;34.27;;;;;;;35.22;37.14;100234.69;1762873;80;21039;-57
2022/05/31 04:57:07;;;;;;;45.88;31.48;;;;;;;35.57;35.74;100233.99;1760743;80;21063;-58
2022/05/31 04:59:36;;;;;;;43.45;30.37;;;;;;;36.29;34.51;100229.55;1762367;80;21047;-57
2022/05/31 05:02:04;;;;;;;45.38;32.90;;;;;;;37.41;32.05;100229.88;1763573;80;21135;-56
2022/05/31 05:04:36;;;;;;;43.05;29.23;;;;;;;37.39;31.19;100238.15;1754347;80;21479;-56
2022/05/31 05:07:04;;;;;;;38.30;26.35;;;;;;;37.17;31.18;100229.67;1758965;81;20967;-63
2022/05/31 05:09:31;;;;;;;30.30;21.77;;;;;;;37.19;31.34;100238.81;1761868;80;20988;-56
2022/05/31 05:12:18;;;;;;;27.15;19.07;;;;;;;37.14;31.37;100239.12;1759459;81;21528;-56
2022/05/31 05:14:47;;;;;;;24.95;17.85;;;;;;;37.28;31.07;100238.00;1760971;80;21651;-57
2022/05/31 05:17:20;;;;;;;23.00;18.32;;;;;;;37.67;30.57;100232.39;1723678;81;21524;-56
2022/05/31 05:19:48;;;;;;;25.10;19.32;;;;;;;38.20;29.75;100233.69;1755636;80;20987;-57
2022/05/31 05:22:15;;;;;;;27.58;19.45;;;;;;;38.59;29.70;100224.61;1754612;80;21536;-56
2022/05/31 05:24:43;;;;;;;24.95;17.70;;;;;;;38.86;29.01;100228.01;1763790;80;21007;-63
2022/05/31 05:27:12;;;;;;;24.15;18.65;;;;;;;38.95;28.46;100234.53;1732637;81;21646;-56
2022/05/31 05:32:44;;;;;;;31.87;21.93;;;;;;;38.97;28.76;100228.11;1742981;81;21531;-56
2022/05/31 05:35:16;;;;;;;24.40;17.92;;;;;;;39.16;28.67;100220.28;1753805;81;21012;-57
2022/05/31 05:37:45;;;;;;;28.92;20.75;;;;;;;39.96;27.52;100222.37;1755433;81;21076;-57
2022/05/31 05:40:13;;;;;;;24.52;18.65;;;;;;;40.52;27.22;100217.70;1755263;81;21151;-62
2022/05/31 05:42:59;;;;;;;28.92;19.67;;;;;;;41.05;26.62;100215.64;1721012;82;21616;-56
2022/05/31 05:45:32;;;;;;;27.07;19.62;;;;;;;40.94;25.91;100208.59;1741272;81;20932;-56
2022/05/31 05:47:59;;;;;;;24.15;17.15;;;;;;;41.43;25.96;100212.50;1750810;81;20932;-58
2022/05/31 05:50:26;;;;;;;22.60;16.05;;;;;;;41.36;25.65;100207.01;1751340;81;21061;-56
2022/05/31 05:53:08;;;;;;;25.05;17.73;;;;;;;41.22;25.50;100195.49;1755989;81;21704;-61
2022/05/31 05:55:49;;;;;;;28.75;19.90;;;;;;;41.60;25.34;100197.20;1717318;82;21051;-56
2022/05/31 05:58:35;;;;;;;21.30;15.98;;;;;;;41.68;25.13;100192.69;1751657;81;21520;-59
2022/05/31 06:01:23;;;;;;;17.57;11.00;;;;;;;42.19;24.76;100191.30;1660916;85;21153;-57
2022/05/31 06:04:06;;;;;;;18.48;12.13;;;;;;;42.17;24.37;100181.94;1755976;79;20993;-57
2022/05/31 06:06:33;;;;;;;14.70;11.30;;;;;;;41.56;24.83;100180.23;1756158;80;21821;-56
2022/05/31 06:09:10;;;;;;;14.90;10.93;;;;;;;41.22;25.15;100179.89;1746098;81;21147;-62
2022/05/31 06:11:51;;;;;;;14.30;10.82;;;;;;;40.87;25.51;100182.61;1752386;80;21019;-57
2022/05/31 06:14:23;;;;;;;18.98;14.70;;;;;;;40.44;26.29;100177.10;1751108;81;20911;-56
2022/05/31 06:16:54;;;;;;;18.48;13.45;;;;;;;40.80;26.33;100173.82;1752299;81;21027;-60
2022/05/31 06:19:35;;;;;;;18.42;13.53;;;;;;;41.13;25.92;100178.12;1752598;80;21170;-56
2022/05/31 06:22:03;;;;;;;19.35;13.15;;;;;;;41.28;26.03;100174.78;1755681;81;21022;-59
2022/05/31 06:24:34;;;;;;;19.95;13.75;;;;;;;41.12;26.14;100172.48;1726190;82;21094;-57
2022/05/31 06:27:04;;;;;;;21.05;15.18;;;;;;;41.18;25.89;100172.28;1756146;81;21466;-56
2022/05/31 06:29:31;;;;;;;20.90;15.88;;;;;;;41.24;25.73;100169.32;1720955;82;20987;-55
2022/05/31 06:31:59;;;;;;;21.15;16.67;;;;;;;40.93;26.29;100164.66;1751705;80;22104;-58
2022/05/31 06:34:28;;;;;;;19.23;14.45;;;;;;;40.64;26.47;100168.75;1739330;81;21438;-63
2022/05/31 06:37:13;;;;;;;29.18;17.73;;;;;;;40.68;26.46;100162.70;1753912;79;21147;-56
2022/05/31 06:39:41;;;;;;;21.23;15.10;;;;;;;40.43;27.19;100158.56;1696026;83;21449;-61
2022/05/31 06:42:10;;;;;;;20.48;13.72;;;;;;;40.72;27.36;100155.87;1756303;81;22187;-57
2022/05/31 06:44:42;;;;;;;17.90;12.70;;;;;;;41.17;26.77;100158.39;1721035;82;21545;-56
2022/05/31 06:47:27;;;;;;;13.75;9.20;;;;;;;41.52;26.33;100156.77;1714373;81;20983;-58
2022/05/31 06:50:13;;;;;;;14.03;9.15;;;;;;;41.27;26.16;100159.55;1752209;81;20888;-57
2022/05/31 06:58:31;;;;;;;10.83;8.30;;;;;;;41.45;26.48;100152.70;1737890;81;21284;-62
2022/05/31 07:01:04;;;;;;;12.00;7.72;;;;;;;40.77;26.99;100152.17;1752806;81;22311;-56
2022/05/31 07:03:34;;;;;;;12.10;7.40;;;;;;;40.96;26.60;100145.52;1741644;82;21096;-56
2022/05/31 07:06:02;;;;;;;11.65;7.83;;;;;;;41.35;26.79;100152.89;1754572;81;20968;-56
2022/05/31 07:08:31;;;;;;;14.05;7.55;;;;;;;41.72;26.23;100143.41;1752011;81;21401;-56
2022/05/31 07:10:59;;;;;;;10.35;8.03;;;;;;;41.97;26.04;100136.45;1751871;81;21218;-55
2022/05/31 07:13:30;;;;;;;14.30;9.53;;;;;;;41.80;25.40;100138.87;1717552;81;21017;-56
2022/05/31 07:16:17;;;;;;;17.42;11.55;;;;;;;41.76;25.74;100142.21;1693003;84;21029;-57
2022/05/31 07:18:49;;;;;;;12.50;9.43;;;;;;;41.95;26.02;100148.41;1690282;84;21520;-59
2022/05/31 07:21:17;;;;;;;10.55;7.70;;;;;;;41.09;26.18;100152.16;1715997;81;21418;-55
2022/05/31 07:23:44;;;;;;;9.63;6.75;;;;;;;41.49;26.18;100160.31;1752439;81;21251;-57
2022/05/31 07:26:12;;;;;;;8.83;6.50;;;;;;;41.25;25.92;100159.16;1752233;81;21020;-63
2022/05/31 07:28:40;;;;;;;11.45;5.60;;;;;;;41.07;26.46;100154.52;1755825;79;21049;-58
2022/05/31 07:31:08;;;;;;;7.05;5.25;;;;;;;41.47;26.48;100152.48;1756390;81;21494;-56
2022/05/31 07:33:38;;;;;;;8.85;5.20;;;;;;;42.07;25.95;100146.58;1753985;80;21726;-56
2022/05/31 07:36:07;;;;;;;6.78;4.25;;;;;;;42.61;25.15;100145.63;1755943;79;21866;-63
2022/05/31 07:38:38;;;;;;;10.88;6.85;;;;;;;42.58;24.98;100149.17;1751224;80;22101;-56
2022/05/31 07:41:05;;;;;;;10.18;6.10;;;;;;;42.49;24.84;100151.01;1756089;81;21009;-56
2022/05/31 07:43:33;;;;;;;7.60;6.17;;;;;;;42.58;24.89;100149.77;1752274;81;21465;-56
2022/05/31 07:46:06;;;;;;;9.40;4.42;;;;;;;42.78;24.69;100152.78;1755866;79;20890;-60
2022/05/31 07:48:34;;;;;;;11.75;4.35;;;;;;;42.76;24.38;100147.09;1744866;81;21494;-57
2022/05/31 07:51:04;;;;;;;6.87;5.15;;;;;;;42.69;24.81;100145.78;1757572;80;21062;-56
2022/05/31 07:53:36;;;;;;;8.10;4.60;;;;;;;42.94;24.25;100149.68;1722044;81;21587;-56
2022/05/31 07:56:16;;;;;;;7.55;5.03;;;;;;;42.97;24.85;100150.84;1651057;84;21031;-57
2022/05/31 07:59:01;;;;;;;10.55;5.92;;;;;;;43.35;24.11;100148.13;1760955;81;21124;-56
2022/05/31 08:01:36;;;;;;;8.23;5.67;;;;;;;43.18;24.39;100141.03;1756013;81;21468;-57
2022/05/31 08:04:06;;;;;;;7.78;4.90;;;;;;;43.54;23.91;100137.14;1758082;81;21361;-62
2022/05/31 08:06:34;;;;;;;8.48;5.35;;;;;;;43.54;23.94;100142.64;1760833;79;21128;-57
2022/05/31 08:09:02;;;;;;;9.95;5.83;;;;;;;43.35;24.09;100145.37;1760629;81;20887;-55
2022/05/31 08:11:33;;;;;;;7.62;5.22;;;;;;;43.10;23.91;100136.03;1760643;80;20954;-57
2022/05/31 08:14:03;;;;;;;8.53;6.58;;;;;;;43.08;24.26;100140.57;1760569;81;21478;-58
2022/05/31 08:16:30;;;;;;;11.20;7.15;;;;;;;43.35;23.72;100137.92;1761027;81;21474;-56
2022/05/31 08:18:57;;;;;;;9.45;7.15;;;;;;;43.78;23.45;100136.03;1760945;81;21519;-57
2022/05/31 08:21:28;;;;;;;7.80;6.12;;;;;;;44.07;23.47;100133.70;1760503;81;21041;-57
2022/05/31 08:23:56;;;;;;;9.05;5.72;;;;;;;44.44;22.96;100127.88;1760697;79;26051;-57
2022/05/31 08:26:24;;;;;;;8.90;5.58;;;;;;;44.20;23.13;100129.77;1761135;81;21104;-57
2022/05/31 08:28:51;;;;;;;10.00;7.08;;;;;;;44.05;23.21;100122.94;1760964;79;20895;-58
2022/05/31 08:31:27;;;;;;;6.50;4.87;;;;;;;44.23;22.82;100120.70;1760309;81;21006;-58
2022/05/31 08:33:54;;;;;;;6.25;4.35;;;;;;;44.46;22.80;100116.45;1759989;81;20988;-57
2022/05/31 08:36:22;;;;;;;5.60;3.70;;;;;;;44.65;22.05;100112.38;1760847;81;21445;-57
2022/05/31 08:38:49;;;;;;;8.10;3.60;;;;;;;44.41;22.53;100110.84;1760879;81;21100;-57
2022/05/31 08:41:27;;;;;;;5.30;3.40;;;;;;;44.59;22.14;100107.19;1760335;81;21496;-63
2022/05/31 08:44:08;;;;;;;5.47;3.55;;;;;;;44.51;21.94;100110.46;1761049;81;21493;-57
2022/05/31 08:47:04;;;;;;;4.62;3.15;;;;;;;44.23;22.29;100108.34;1760713;81;21029;-57
2022/05/31 08:53:31;;;;;;;8.25;3.92;;;;;;;44.51;22.52;100107.11;1757265;81;21206;-57
2022/05/31 08:59:11;;;;;;;6.58;3.92;;;;;;;44.46;22.48;100104.08;1760299;81;21002;-58
2022/05/31 09:01:44;;;;;;;5.17;3.20;;;;;;;44.65;22.59;100101.37;1760778;81;21445;-58
2022/05/31 09:04:25;;;;;;;4.30;3.10;;;;;;;44.78;22.30;100104.33;1757731;79;20954;-58
2022/05/31 09:06:55;;;;;;;8.83;3.35;;;;;;;45.03;21.80;100106.59;1753436;79;21308;-64
2022/05/31 09:09:32;;;;;;;4.55;2.52;;;;;;;44.79;21.97;100107.25;1750375;81;21045;-58
2022/05/31 09:12:37;;;;;;;5.10;2.83;;;;;;;44.63;22.04;100102.41;1755252;81;20995;-58
2022/05/31 09:15:34;;;;;;;5.53;2.98;;;;;;;44.64;22.08;100101.20;1761091;81;21507;-56
2022/05/31 09:19:51;;;;;;;6.25;3.50;;;;;;;44.23;22.61;100097.34;1784484;78;22736;-56
2022/05/31 09:22:18;;;;;;;4.80;3.08;;;;;;;44.25;22.43;100100.47;1749425;81;20978;-57
2022/05/31 09:24:47;;;;;;;3.85;2.92;;;;;;;43.90;22.33;100102.55;1748093;81;21474;-57
2022/05/31 09:27:24;;;;;;;4.97;3.12;;;;;;;43.66;22.70;100103.05;1747777;81;21033;-57
2022/05/31 09:30:12;;;;;;;4.95;3.10;;;;;;;43.66;22.90;100099.53;1737772;81;20928;-56
2022/05/31 09:33:09;;;;;;;6.67;3.70;;;;;;;43.84;23.03;100096.55;1745616;81;21372;-57
2022/05/31 09:36:03;;;;;;;5.25;3.55;;;;;;;43.53;23.09;100106.75;1719803;83;21052;-60
2022/05/31 09:38:44;;;;;;;5.85;3.40;;;;;;;43.05;23.23;100100.21;1712977;83;21168;-56
2022/05/31 09:41:39;;;;;;;5.92;4.15;;;;;;;42.46;23.67;100094.86;1712356;83;20987;-61
2022/05/31 09:44:38;;;;;;;9.15;4.72;;;;;;;42.16;24.53;100098.19;1706926;83;21413;-57
2022/05/31 09:47:22;;;;;;;9.50;3.98;;;;;;;41.91;25.17;100097.00;1693350;82;21102;-57
2022/05/31 09:49:51;;;;;;;7.58;3.92;;;;;;;41.76;24.89;100099.02;1702990;83;21101;-57
2022/05/31 09:52:29;;;;;;;6.75;5.03;;;;;;;41.58;25.43;100104.56;1709062;82;21160;-61
2022/05/31 09:58:29;;;;;;;6.90;4.40;;;;;;;41.86;25.32;100100.92;1719731;83;21033;-56
2022/05/31 10:01:29;;;;;;;8.88;4.42;;;;;;;42.26;25.12;100098.74;1707573;83;21057;-56
2022/05/31 10:04:27;;;;;;;7.37;4.55;;;;;;;42.42;24.70;100108.59;1715665;82;21145;-56
2022/05/31 10:07:03;;;;;;;7.30;4.55;;;;;;;42.57;24.34;100109.25;1703953;83;21897;-57
2022/05/31 10:09:39;;;;;;;7.25;4.75;;;;;;;42.92;23.88;100100.53;1724512;82;21005;-56
2022/05/31 10:12:26;;;;;;;12.73;4.72;;;;;;;42.75;23.64;100109.13;1722978;82;21006;-63
2022/05/31 10:14:54;;;;;;;5.67;3.50;;;;;;;42.65;24.35;100108.59;1710784;83;21516;-57
2022/05/31 10:17:38;;;;;;;6.55;3.75;;;;;;;42.81;24.47;100114.94;1716681;83;21010;-55
2022/05/31 10:20:22;;;;;;;6.42;4.15;;;;;;;42.96;23.78;100116.35;1720870;83;22389;-56
2022/05/31 10:23:13;;;;;;;7.35;4.17;;;;;;;43.08;23.58;100115.89;1718318;82;21505;-56
2022/05/31 10:25:58;;;;;;;7.87;3.52;;;;;;;42.98;23.38;100109.88;1682191;83;20986;-57
2022/05/31 10:28:40;;;;;;;5.55;3.77;;;;;;;42.55;23.76;100114.38;1715666;83;21001;-63
2022/05/31 10:31:37;;;;;;;8.25;3.92;;;;;;;41.95;24.37;100112.81;1686235;84;21417;-57
2022/05/31 10:34:40;;;;;;;9.35;4.83;;;;;;;41.87;24.67;100114.81;1692328;84;21308;-58
2022/05/31 10:37:24;;;;;;;6.87;4.67;;;;;;;41.84;24.75;100109.36;1721232;83;21026;-56
2022/05/31 10:40:09;;;;;;;7.12;4.37;;;;;;;41.50;24.97;100097.56;1682083;83;21056;-56
2022/05/31 10:42:41;;;;;;;8.83;4.40;;;;;;;41.13;25.58;100093.36;1677586;83;21509;-56
2022/05/31 10:45:09;;;;;;;9.85;5.15;;;;;;;40.79;26.37;100077.97;1670802;83;20996;-58
2022/05/31 10:47:36;;;;;;;8.60;5.12;;;;;;;41.01;25.89;100056.88;1681634;83;21635;-56
2022/05/31 10:50:07;;;;;;;8.93;4.47;;;;;;;40.84;26.15;100062.53;1690636;83;22091;-56
2022/05/31 10:52:41;;;;;;;8.00;5.03;;;;;;;40.73;26.82;100060.44;1683724;83;21036;-56
2022/05/31 10:55:49;;;;;;;7.20;5.22;;;;;;;40.69;26.60;100066.46;1679711;83;21538;-64
2022/05/31 10:58:33;;;;;;;8.33;4.97;;;;;;;40.67;26.25;100076.43;1683456;83;21040;-58
2022/05/31 11:01:13;;;;;;;7.70;4.87;;;;;;;41.08;26.42;100073.27;1670511;83;21268;-57
2022/05/31 11:04:27;;;;;;;6.00;4.72;;;;;;;41.70;26.40;100070.48;1704561;83;21067;-56
2022/05/31 11:07:23;;;;;;;6.22;4.40;;;;;;;42.37;24.58;100074.02;1682319;83;21600;-56
2022/05/31 11:12:56;;;;;;;7.70;4.80;;;;;;;42.76;24.19;100070.33;1687506;83;20946;-57
2022/05/31 11:15:56;;;;;;;8.08;5.30;;;;;;;43.08;23.50;100077.48;1688592;83;21252;-57
2022/05/31 11:18:44;;;;;;;11.73;6.30;;;;;;;43.48;23.21;100073.69;1685179;83;22574;-56
2022/05/31 11:21:32;;;;;;;8.70;6.20;;;;;;;43.58;22.65;100070.03;1683756;84;21017;-57
2022/05/31 11:24:16;;;;;;;8.63;5.80;;;;;;;43.56;22.66;100066.91;1673927;84;21964;-60
2022/05/31 11:27:04;;;;;;;7.97;5.60;;;;;;;43.51;22.57;100056.40;1674588;84;20997;-57
2022/05/31 11:30:11;;;;;;;7.78;5.22;;;;;;;43.56;22.75;100055.16;1686141;84;21414;-58
2022/05/31 11:33:12;;;;;;;9.00;5.70;;;;;;;43.82;22.92;100053.02;1683518;84;21062;-64
2022/05/31 11:36:16;;;;;;;8.55;5.47;;;;;;;44.13;21.54;100046.09;1679104;84;21034;-56
2022/05/31 11:39:24;;;;;;;9.08;5.72;;;;;;;43.75;22.32;100043.50;1675697;84;20976;-57
2022/05/31 11:42:13;;;;;;;7.08;3.77;;;;;;;43.43;23.12;100031.59;1677293;84;21100;-57
2022/05/31 11:45:28;;;;;;;6.60;4.15;;;;;;;43.71;22.30;100031.80;1672987;84;21237;-64
2022/05/31 11:48:36;;;;;;;8.80;4.40;;;;;;;43.94;21.88;100024.22;1667094;84;21016;-60
2022/05/31 11:51:24;;;;;;;8.08;5.87;;;;;;;44.20;22.37;100024.77;1679695;84;21476;-59
2022/05/31 11:54:14;;;;;;;13.22;4.70;;;;;;;44.31;21.93;100008.73;1648251;84;20993;-57
2022/05/31 11:57:24;;;;;;;10.68;7.28;;;;;;;44.45;21.68;100010.45;1666349;84;21040;-59
2022/05/31 11:59:59;;;;;;;5.30;2.77;;;;;;;44.45;21.46;100013.98;1665234;84;21168;-57
2022/05/31 12:02:52;;;;;;;6.03;3.27;;;;;;;44.43;20.37;100008.88;1681357;84;21070;-57
2022/05/31 12:05:36;;;;;;;6.12;3.20;;;;;;;44.42;20.19;100006.56;1669356;84;21032;-57
2022/05/31 12:08:17;;;;;;;6.65;2.55;;;;;;;44.24;19.82;99995.09;1680811;84;21337;-57
2022/05/31 12:10:52;;;;;;;8.93;2.80;;;;;;;44.17;20.18;99983.61;1678929;84;20989;-57
2022/05/31 12:13:20;;;;;;;14.05;10.20;;;;;;;44.22;20.37;99972.16;1656641;84;21474;-62
2022/05/31 12:15:51;;;;;;;7.75;3.98;;;;;;;44.01;20.55;99963.69;1669494;84;21018;-57